sensor_id;sensor_type;location;lat;lon;timestamp;pressure;altitude;pressure_sealevel;temperature;humidity
8101;BME280;4093;53.470;9.832;2023-03-04T00:02:12;101976.25;;;7.48;87.90
8101;BME280;4093;53.470;9.832;2023-03-04T00:04:40;101982.38;;;8.20;86.05
8101;BME280;4093;53.470;9.832;2023-03-04T00:07:07;101985.72;;;8.09;85.98
8101;BME280;4093;53.470;9.832;2023-03-04T00:09:35;101986.72;;;8.24;85.98
8101;BME280;4093;53.470;9.832;2023-03-04T00:12:05;101972.47;;;8.50;83.35
8101;BME280;4093;53.470;9.832;2023-03-04T00:14:34;101984.53;;;8.54;84.35
8101;BME280;4093;53.470;9.832;2023-03-04T00:17:01;101966.00;;;8.13;83.92
8101;BME280;4093;53.470;9.832;2023-03-04T00:19:30;101970.56;;;8.35;83.64
8101;BME280;4093;53.470;9.832;2023-03-04T00:21:57;101982.06;;;7.94;85.98
8101;BME280;4093;53.470;9.832;2023-03-04T00:24:25;101980.56;;;8.09;85.07
8101;BME280;4093;53.470;9.832;2023-03-04T00:26:53;101931.38;;;7.91;84.25
8101;BME280;4093;53.470;9.832;2023-03-04T00:29:22;101983.53;;;8.40;83.93
8101;BME280;4093;53.470;9.832;2023-03-04T00:31:50;101970.75;;;8.51;84.10
8101;BME280;4093;53.470;9.832;2023-03-04T00:34:17;101972.25;;;8.33;84.03
8101;BME280;4093;53.470;9.832;2023-03-04T00:36:45;101975.75;;;8.37;84.62
8101;BME280;4093;53.470;9.832;2023-03-04T00:39:13;101962.59;;;8.17;85.08
8101;BME280;4093;53.470;9.832;2023-03-04T00:41:41;101935.63;;;7.87;85.46
8101;BME280;4093;53.470;9.832;2023-03-04T00:44:09;101935.88;;;8.07;85.46
8101;BME280;4093;53.470;9.832;2023-03-04T00:46:38;101955.69;;;8.15;86.07
8101;BME280;4093;53.470;9.832;2023-03-04T00:49:05;101957.72;;;8.37;85.57
8101;BME280;4093;53.470;9.832;2023-03-04T00:51:33;101946.31;;;8.20;84.53
8101;BME280;4093;53.470;9.832;2023-03-04T00:54:01;101951.75;;;8.41;84.66
8101;BME280;4093;53.470;9.832;2023-03-04T00:56:29;101949.31;;;8.53;84.11
8101;BME280;4093;53.470;9.832;2023-03-04T00:58:56;101937.22;;;8.48;84.01
8101;BME280;4093;53.470;9.832;2023-03-04T01:01:24;101939.72;;;8.42;84.70
8101;BME280;4093;53.470;9.832;2023-03-04T01:03:53;101942.00;;;8.16;85.87
8101;BME280;4093;53.470;9.832;2023-03-04T01:06:21;101938.75;;;8.32;84.33
8101;BME280;4093;53.470;9.832;2023-03-04T01:08:49;101938.63;;;8.21;85.68
8101;BME280;4093;53.470;9.832;2023-03-04T01:11:16;101933.25;;;8.77;84.13
8101;BME280;4093;53.470;9.832;2023-03-04T01:13:44;101921.13;;;8.69;83.31
8101;BME280;4093;53.470;9.832;2023-03-04T01:16:12;101921.63;;;8.37;84.03
8101;BME280;4093;53.470;9.832;2023-03-04T01:18:39;101918.03;;;8.23;84.83
8101;BME280;4093;53.470;9.832;2023-03-04T01:21:08;101914.00;;;7.75;87.10
8101;BME280;4093;53.470;9.832;2023-03-04T01:23:36;101925.72;;;8.18;85.20
8101;BME280;4093;53.470;9.832;2023-03-04T01:26:04;101908.81;;;7.73;86.93
8101;BME280;4093;53.470;9.832;2023-03-04T01:28:32;101904.13;;;8.08;86.14
8101;BME280;4093;53.470;9.832;2023-03-04T01:31:01;101924.28;;;8.42;84.00
8101;BME280;4093;53.470;9.832;2023-03-04T01:33:30;101913.97;;;8.40;83.65
8101;BME280;4093;53.470;9.832;2023-03-04T01:35:57;101896.72;;;8.38;85.09
8101;BME280;4093;53.470;9.832;2023-03-04T01:38:26;101895.97;;;8.48;85.06
8101;BME280;4093;53.470;9.832;2023-03-04T01:40:54;101882.00;;;8.26;85.31
8101;BME280;4093;53.470;9.832;2023-03-04T01:43:24;101883.50;;;8.05;86.87
8101;BME280;4093;53.470;9.832;2023-03-04T01:45:55;101883.66;;;8.24;85.93
8101;BME280;4093;53.470;9.832;2023-03-04T01:48:25;101877.91;;;8.45;85.55
8101;BME280;4093;53.470;9.832;2023-03-04T01:50:53;101808.09;;;8.22;83.70
8101;BME280;4093;53.470;9.832;2023-03-04T01:53:22;101862.56;;;8.58;83.72
8101;BME280;4093;53.470;9.832;2023-03-04T01:55:54;101870.38;;;8.68;82.89
8101;BME280;4093;53.470;9.832;2023-03-04T01:58:24;101837.72;;;8.67;83.08
8101;BME280;4093;53.470;9.832;2023-03-04T02:00:52;101855.22;;;8.13;85.13
8101;BME280;4093;53.470;9.832;2023-03-04T02:03:20;101860.84;;;8.56;83.97
8101;BME280;4093;53.470;9.832;2023-03-04T02:05:50;101863.53;;;8.70;84.10
8101;BME280;4093;53.470;9.832;2023-03-04T02:08:20;101861.66;;;8.50;83.78
8101;BME280;4093;53.470;9.832;2023-03-04T02:10:49;101860.81;;;8.54;83.68
8101;BME280;4093;53.470;9.832;2023-03-04T02:13:19;101846.16;;;8.47;84.16
8101;BME280;4093;53.470;9.832;2023-03-04T02:15:46;101855.41;;;8.33;85.65
8101;BME280;4093;53.470;9.832;2023-03-04T02:18:16;101846.28;;;8.60;83.14
8101;BME280;4093;53.470;9.832;2023-03-04T02:20:52;101852.19;;;8.51;83.50
8101;BME280;4093;53.470;9.832;2023-03-04T02:23:25;101849.75;;;8.68;83.05
8101;BME280;4093;53.470;9.832;2023-03-04T02:26:11;101842.94;;;8.71;83.52
8101;BME280;4093;53.470;9.832;2023-03-04T02:28:39;101837.00;;;8.83;82.45
8101;BME280;4093;53.470;9.832;2023-03-04T02:31:15;101830.03;;;8.71;82.42
8101;BME280;4093;53.470;9.832;2023-03-04T02:33:47;101816.94;;;8.47;83.12
8101;BME280;4093;53.470;9.832;2023-03-04T02:36:15;101831.03;;;8.87;81.96
8101;BME280;4093;53.470;9.832;2023-03-04T02:38:42;101828.44;;;8.87;82.04
8101;BME280;4093;53.470;9.832;2023-03-04T02:41:14;101817.56;;;8.24;83.95
8101;BME280;4093;53.470;9.832;2023-03-04T02:43:44;101816.16;;;8.55;84.71
8101;BME280;4093;53.470;9.832;2023-03-04T02:46:12;101817.97;;;8.70;84.16
8101;BME280;4093;53.470;9.832;2023-03-04T02:48:40;101809.66;;;8.07;86.22
8101;BME280;4093;53.470;9.832;2023-03-04T02:51:08;101766.84;;;8.19;84.60
8101;BME280;4093;53.470;9.832;2023-03-04T02:53:36;101807.31;;;8.30;84.95
8101;BME280;4093;53.470;9.832;2023-03-04T02:56:04;101811.88;;;8.57;84.87
8101;BME280;4093;53.470;9.832;2023-03-04T02:58:33;101813.38;;;8.34;85.35
8101;BME280;4093;53.470;9.832;2023-03-04T03:01:01;101811.78;;;8.47;84.31
8101;BME280;4093;53.470;9.832;2023-03-04T03:03:29;101810.25;;;8.69;84.17
8101;BME280;4093;53.470;9.832;2023-03-04T03:05:57;101791.09;;;8.39;84.30
8101;BME280;4093;53.470;9.832;2023-03-04T03:08:24;101780.69;;;8.31;84.87
8101;BME280;4093;53.470;9.832;2023-03-04T03:10:52;101792.69;;;8.29;86.02
8101;BME280;4093;53.470;9.832;2023-03-04T03:13:20;101798.56;;;8.15;87.46
8101;BME280;4093;53.470;9.832;2023-03-04T03:15:49;101776.50;;;8.38;86.17
8101;BME280;4093;53.470;9.832;2023-03-04T03:18:17;101802.00;;;8.12;87.26
8101;BME280;4093;53.470;9.832;2023-03-04T03:20:45;101794.84;;;8.79;85.24
8101;BME280;4093;53.470;9.832;2023-03-04T03:23:13;101786.94;;;8.55;85.11
8101;BME280;4093;53.470;9.832;2023-03-04T03:25:43;101787.06;;;8.73;85.51
8101;BME280;4093;53.470;9.832;2023-03-04T03:28:11;101787.50;;;8.22;88.30
8101;BME280;4093;53.470;9.832;2023-03-04T03:30:38;101793.72;;;8.44;88.69
8101;BME280;4093;53.470;9.832;2023-03-04T03:33:07;101784.09;;;8.29;88.60
8101;BME280;4093;53.470;9.832;2023-03-04T03:35:35;101736.84;;;8.25;86.12
8101;BME280;4093;53.470;9.832;2023-03-04T03:38:03;101791.00;;;8.33;88.29
8101;BME280;4093;53.470;9.832;2023-03-04T03:40:31;101791.53;;;7.97;89.48
8101;BME280;4093;53.470;9.832;2023-03-04T03:42:59;101794.66;;;8.53;88.73
8101;BME280;4093;53.470;9.832;2023-03-04T03:45:27;101788.84;;;8.84;87.58
8101;BME280;4093;53.470;9.832;2023-03-04T03:47:54;101778.53;;;8.77;87.53
8101;BME280;4093;53.470;9.832;2023-03-04T03:50:24;101786.00;;;8.45;88.54
8101;BME280;4093;53.470;9.832;2023-03-04T03:52:51;101783.50;;;8.53;88.49
8101;BME280;4093;53.470;9.832;2023-03-04T03:55:19;101787.47;;;8.19;90.12
8101;BME280;4093;53.470;9.832;2023-03-04T03:57:47;101775.53;;;8.30;90.62
8101;BME280;4093;53.470;9.832;2023-03-04T04:00:15;101781.34;;;8.06;90.28
8101;BME280;4093;53.470;9.832;2023-03-04T04:02:43;101776.13;;;8.00;91.25
8101;BME280;4093;53.470;9.832;2023-03-04T04:05:12;101780.78;;;8.39;89.50
8101;BME280;4093;53.470;9.832;2023-03-04T04:07:41;101773.69;;;8.17;89.76
8101;BME280;4093;53.470;9.832;2023-03-04T04:10:09;101737.00;;;8.42;88.27
8101;BME280;4093;53.470;9.832;2023-03-04T04:12:38;101769.56;;;8.35;88.70
8101;BME280;4093;53.470;9.832;2023-03-04T04:15:08;101763.66;;;8.44;88.33
8101;BME280;4093;53.470;9.832;2023-03-04T04:17:37;101745.13;;;7.92;89.91
8101;BME280;4093;53.470;9.832;2023-03-04T04:20:07;101765.25;;;8.31;88.98
8101;BME280;4093;53.470;9.832;2023-03-04T04:22:35;101763.16;;;7.91;92.05
8101;BME280;4093;53.470;9.832;2023-03-04T04:25:05;101768.31;;;7.92;92.77
8101;BME280;4093;53.470;9.832;2023-03-04T04:27:34;101770.75;;;8.76;89.32
8101;BME280;4093;53.470;9.832;2023-03-04T04:30:02;101759.56;;;8.72;89.40
8101;BME280;4093;53.470;9.832;2023-03-04T04:32:30;101765.09;;;8.16;92.12
8101;BME280;4093;53.470;9.832;2023-03-04T04:34:58;101769.78;;;8.57;92.11
8101;BME280;4093;53.470;9.832;2023-03-04T04:37:26;101757.47;;;8.27;93.45
8101;BME280;4093;53.470;9.832;2023-03-04T04:39:53;101770.25;;;8.18;94.37
8101;BME280;4093;53.470;9.832;2023-03-04T04:42:23;101765.91;;;8.09;94.14
8101;BME280;4093;53.470;9.832;2023-03-04T04:44:50;101766.78;;;8.13;94.62
8101;BME280;4093;53.470;9.832;2023-03-04T04:47:18;101774.38;;;7.97;94.70
8101;BME280;4093;53.470;9.832;2023-03-04T04:49:46;101766.44;;;7.77;96.41
8101;BME280;4093;53.470;9.832;2023-03-04T04:52:14;101771.97;;;8.17;95.44
8101;BME280;4093;53.470;9.832;2023-03-04T04:54:41;101765.44;;;8.54;93.04
8101;BME280;4093;53.470;9.832;2023-03-04T04:57:09;101758.41;;;8.35;93.97
8101;BME280;4093;53.470;9.832;2023-03-04T04:59:38;101763.72;;;8.53;93.92
8101;BME280;4093;53.470;9.832;2023-03-04T05:02:06;101720.22;;;7.91;94.34
8101;BME280;4093;53.470;9.832;2023-03-04T05:04:34;101757.06;;;7.84;94.85
8101;BME280;4093;53.470;9.832;2023-03-04T05:07:01;101761.63;;;8.09;94.26
8101;BME280;4093;53.470;9.832;2023-03-04T05:09:29;101761.38;;;7.85;95.45
8101;BME280;4093;53.470;9.832;2023-03-04T05:11:57;101754.06;;;7.44;96.33
8101;BME280;4093;53.470;9.832;2023-03-04T05:14:25;101751.72;;;7.67;96.46
8101;BME280;4093;53.470;9.832;2023-03-04T05:16:54;101767.22;;;7.70;95.84
8101;BME280;4093;53.470;9.832;2023-03-04T05:19:22;101759.44;;;7.65;97.42
8101;BME280;4093;53.470;9.832;2023-03-04T05:21:50;101740.69;;;7.76;95.77
8101;BME280;4093;53.470;9.832;2023-03-04T05:24:17;101754.94;;;7.46;95.72
8101;BME280;4093;53.470;9.832;2023-03-04T05:26:45;101756.09;;;7.73;95.30
8101;BME280;4093;53.470;9.832;2023-03-04T05:29:13;101753.44;;;7.67;94.17
8101;BME280;4093;53.470;9.832;2023-03-04T05:31:41;101748.84;;;7.39;93.20
8101;BME280;4093;53.470;9.832;2023-03-04T05:34:10;101735.25;;;7.51;92.10
8101;BME280;4093;53.470;9.832;2023-03-04T05:36:38;101760.31;;;7.66;91.05
8101;BME280;4093;53.470;9.832;2023-03-04T05:39:06;101752.25;;;7.37;89.64
8101;BME280;4093;53.470;9.832;2023-03-04T05:41:33;101737.53;;;7.27;88.68
8101;BME280;4093;53.470;9.832;2023-03-04T05:44:01;101712.84;;;7.41;86.61
8101;BME280;4093;53.470;9.832;2023-03-04T05:46:29;101739.66;;;7.58;85.25
8101;BME280;4093;53.470;9.832;2023-03-04T05:48:59;101749.03;;;7.53;83.37
8101;BME280;4093;53.470;9.832;2023-03-04T05:51:28;101752.59;;;7.68;85.07
8101;BME280;4093;53.470;9.832;2023-03-04T05:53:56;101735.00;;;8.10;82.92
8101;BME280;4093;53.470;9.832;2023-03-04T05:56:23;101751.41;;;8.22;81.64
8101;BME280;4093;53.470;9.832;2023-03-04T05:58:51;101748.72;;;8.06;82.29
8101;BME280;4093;53.470;9.832;2023-03-04T06:01:19;101749.22;;;7.72;83.94
8101;BME280;4093;53.470;9.832;2023-03-04T06:03:47;101755.75;;;8.24;82.41
8101;BME280;4093;53.470;9.832;2023-03-04T06:06:15;101751.41;;;8.22;83.03
8101;BME280;4093;53.470;9.832;2023-03-04T06:08:44;101740.47;;;8.49;82.70
8101;BME280;4093;53.470;9.832;2023-03-04T06:11:12;101748.88;;;8.25;85.59
8101;BME280;4093;53.470;9.832;2023-03-04T06:13:40;101734.84;;;7.95;87.68
8101;BME280;4093;53.470;9.832;2023-03-04T06:16:08;101741.78;;;8.01;89.14
8101;BME280;4093;53.470;9.832;2023-03-04T06:18:37;101742.75;;;8.12;88.06
8101;BME280;4093;53.470;9.832;2023-03-04T06:21:05;101745.66;;;7.60;88.20
8101;BME280;4093;53.470;9.832;2023-03-04T06:23:33;101747.25;;;7.49;88.24
8101;BME280;4093;53.470;9.832;2023-03-04T06:26:02;101756.22;;;7.85;85.35
8101;BME280;4093;53.470;9.832;2023-03-04T06:28:31;101752.59;;;7.68;85.55
8101;BME280;4093;53.470;9.832;2023-03-04T06:30:58;101754.06;;;7.44;83.53
8101;BME280;4093;53.470;9.832;2023-03-04T06:33:26;101761.78;;;7.46;81.28
8101;BME280;4093;53.470;9.832;2023-03-04T06:35:55;101712.28;;;6.95;80.53
8101;BME280;4093;53.470;9.832;2023-03-04T06:38:23;101755.47;;;7.21;79.91
8101;BME280;4093;53.470;9.832;2023-03-04T06:40:51;101728.06;;;7.23;78.17
8101;BME280;4093;53.470;9.832;2023-03-04T06:43:24;101766.22;;;7.56;78.17
8101;BME280;4093;53.470;9.832;2023-03-04T06:45:51;101765.97;;;7.37;77.65
8101;BME280;4093;53.470;9.832;2023-03-04T06:48:19;101716.81;;;7.13;77.85
8101;BME280;4093;53.470;9.832;2023-03-04T06:50:47;101749.47;;;7.18;78.29
8101;BME280;4093;53.470;9.832;2023-03-04T06:53:15;101770.47;;;7.54;77.66
8101;BME280;4093;53.470;9.832;2023-03-04T06:55:43;101754.16;;;7.53;77.49
8101;BME280;4093;53.470;9.832;2023-03-04T06:58:10;101761.09;;;7.60;77.22
8101;BME280;4093;53.470;9.832;2023-03-04T07:00:39;101766.13;;;7.51;77.77
8101;BME280;4093;53.470;9.832;2023-03-04T07:03:08;101738.19;;;7.10;78.85
8101;BME280;4093;53.470;9.832;2023-03-04T07:05:35;101752.31;;;7.40;79.04
8101;BME280;4093;53.470;9.832;2023-03-04T07:08:03;101772.34;;;7.69;78.09
8101;BME280;4093;53.470;9.832;2023-03-04T07:10:32;101760.75;;;7.31;79.47
8101;BME280;4093;53.470;9.832;2023-03-04T07:13:00;101752.06;;;7.22;80.20
8101;BME280;4093;53.470;9.832;2023-03-04T07:15:28;101756.06;;;7.70;79.48
8101;BME280;4093;53.470;9.832;2023-03-04T07:17:57;101764.00;;;7.15;81.26
8101;BME280;4093;53.470;9.832;2023-03-04T07:20:24;101766.25;;;7.60;79.98
8101;BME280;4093;53.470;9.832;2023-03-04T07:22:54;101733.66;;;7.59;79.46
8101;BME280;4093;53.470;9.832;2023-03-04T07:25:21;101757.00;;;7.78;79.23
8101;BME280;4093;53.470;9.832;2023-03-04T07:27:49;101763.59;;;7.53;78.21
8101;BME280;4093;53.470;9.832;2023-03-04T07:30:17;101746.09;;;7.24;79.05
8101;BME280;4093;53.470;9.832;2023-03-04T07:32:45;101777.28;;;7.52;78.00
8101;BME280;4093;53.470;9.832;2023-03-04T07:35:14;101773.22;;;7.71;78.49
8101;BME280;4093;53.470;9.832;2023-03-04T07:37:42;101768.53;;;7.36;76.72
8101;BME280;4093;53.470;9.832;2023-03-04T07:40:10;101769.56;;;7.50;77.21
8101;BME280;4093;53.470;9.832;2023-03-04T07:42:38;101772.03;;;7.42;77.13
8101;BME280;4093;53.470;9.832;2023-03-04T07:45:07;101772.47;;;7.09;78.61
8101;BME280;4093;53.470;9.832;2023-03-04T07:47:35;101768.13;;;7.04;77.01
8101;BME280;4093;53.470;9.832;2023-03-04T07:50:03;101765.53;;;7.02;77.90
8101;BME280;4093;53.470;9.832;2023-03-04T07:52:32;101780.38;;;7.23;77.65
8101;BME280;4093;53.470;9.832;2023-03-04T07:55:00;101768.78;;;6.92;77.86
8101;BME280;4093;53.470;9.832;2023-03-04T07:57:28;101784.13;;;7.48;76.78
8101;BME280;4093;53.470;9.832;2023-03-04T07:59:55;101775.25;;;7.26;76.74
8101;BME280;4093;53.470;9.832;2023-03-04T08:02:23;101775.66;;;7.57;77.40
8101;BME280;4093;53.470;9.832;2023-03-04T08:04:51;101778.03;;;7.41;77.05
8101;BME280;4093;53.470;9.832;2023-03-04T08:07:18;101780.97;;;7.74;77.11
8101;BME280;4093;53.470;9.832;2023-03-04T08:09:48;101772.28;;;7.62;76.47
8101;BME280;4093;53.470;9.832;2023-03-04T08:12:16;101778.22;;;7.55;77.54
8101;BME280;4093;53.470;9.832;2023-03-04T08:14:44;101756.34;;;7.21;79.74
8101;BME280;4093;53.470;9.832;2023-03-04T08:17:12;101786.31;;;7.21;80.91
8101;BME280;4093;53.470;9.832;2023-03-04T08:19:40;101774.59;;;7.42;81.36
8101;BME280;4093;53.470;9.832;2023-03-04T08:22:07;101792.81;;;7.56;82.52
8101;BME280;4093;53.470;9.832;2023-03-04T08:24:35;101786.00;;;7.63;80.88
8101;BME280;4093;53.470;9.832;2023-03-04T08:27:04;101790.22;;;7.56;81.79
8101;BME280;4093;53.470;9.832;2023-03-04T08:29:32;101784.00;;;7.39;81.85
8101;BME280;4093;53.470;9.832;2023-03-04T08:32:00;101797.56;;;7.24;81.80
8101;BME280;4093;53.470;9.832;2023-03-04T08:34:28;101799.28;;;7.25;81.97
8101;BME280;4093;53.470;9.832;2023-03-04T08:36:56;101810.47;;;7.29;80.77
8101;BME280;4093;53.470;9.832;2023-03-04T08:39:24;101797.56;;;7.26;80.48
8101;BME280;4093;53.470;9.832;2023-03-04T08:41:52;101809.22;;;7.68;78.94
8101;BME280;4093;53.470;9.832;2023-03-04T08:44:21;101810.00;;;7.59;77.58
8101;BME280;4093;53.470;9.832;2023-03-04T08:46:52;101799.69;;;6.95;79.20
8101;BME280;4093;53.470;9.832;2023-03-04T08:49:19;101804.88;;;7.63;78.62
8101;BME280;4093;53.470;9.832;2023-03-04T08:51:47;101808.16;;;7.50;78.96
8101;BME280;4093;53.470;9.832;2023-03-04T08:54:15;101802.72;;;7.27;78.81
8101;BME280;4093;53.470;9.832;2023-03-04T08:56:42;101798.69;;;7.46;78.09
8101;BME280;4093;53.470;9.832;2023-03-04T08:59:10;101795.09;;;7.35;76.27
8101;BME280;4093;53.470;9.832;2023-03-04T09:01:41;101795.41;;;7.59;75.86
8101;BME280;4093;53.470;9.832;2023-03-04T09:04:08;101803.72;;;7.38;75.02
8101;BME280;4093;53.470;9.832;2023-03-04T09:06:36;101785.63;;;7.31;75.35
8101;BME280;4093;53.470;9.832;2023-03-04T09:09:04;101807.19;;;7.42;75.55
8101;BME280;4093;53.470;9.832;2023-03-04T09:11:32;101798.56;;;7.37;75.37
8101;BME280;4093;53.470;9.832;2023-03-04T09:13:59;101810.75;;;7.50;74.42
8101;BME280;4093;53.470;9.832;2023-03-04T09:16:27;101799.63;;;7.53;75.07
8101;BME280;4093;53.470;9.832;2023-03-04T09:18:56;101806.94;;;7.24;75.41
8101;BME280;4093;53.470;9.832;2023-03-04T09:21:24;101795.91;;;7.32;75.05
8101;BME280;4093;53.470;9.832;2023-03-04T09:23:51;101802.44;;;7.73;74.85
8101;BME280;4093;53.470;9.832;2023-03-04T09:26:21;101788.44;;;7.49;75.23
8101;BME280;4093;53.470;9.832;2023-03-04T09:28:50;101792.09;;;7.70;73.98
8101;BME280;4093;53.470;9.832;2023-03-04T09:31:18;101782.28;;;7.36;73.49
8101;BME280;4093;53.470;9.832;2023-03-04T09:33:46;101784.94;;;7.44;74.86
8101;BME280;4093;53.470;9.832;2023-03-04T09:36:16;101795.38;;;7.58;75.74
8101;BME280;4093;53.470;9.832;2023-03-04T09:38:44;101792.03;;;7.63;75.25
8101;BME280;4093;53.470;9.832;2023-03-04T09:41:15;101791.22;;;7.69;74.09
8101;BME280;4093;53.470;9.832;2023-03-04T09:43:44;101789.34;;;7.53;75.39
8101;BME280;4093;53.470;9.832;2023-03-04T09:46:15;101778.25;;;7.58;75.93
8101;BME280;4093;53.470;9.832;2023-03-04T09:48:48;101789.69;;;7.83;74.80
8101;BME280;4093;53.470;9.832;2023-03-04T09:51:22;101788.50;;;7.55;76.59
8101;BME280;4093;53.470;9.832;2023-03-04T09:54:16;101756.22;;;7.85;75.10
8101;BME280;4093;53.470;9.832;2023-03-04T09:56:48;101785.22;;;7.70;75.39
8101;BME280;4093;53.470;9.832;2023-03-04T09:59:24;101790.03;;;8.19;73.73
8101;BME280;4093;53.470;9.832;2023-03-04T10:01:53;101772.06;;;8.25;72.94
8101;BME280;4093;53.470;9.832;2023-03-04T10:04:29;101768.25;;;7.89;72.76
8101;BME280;4093;53.470;9.832;2023-03-04T10:07:01;101788.06;;;7.95;72.87
8101;BME280;4093;53.470;9.832;2023-03-04T10:09:39;101761.50;;;7.97;73.17
8101;BME280;4093;53.470;9.832;2023-03-04T10:12:12;101780.66;;;8.25;71.80
8101;BME280;4093;53.470;9.832;2023-03-04T10:14:45;101775.13;;;7.88;72.49
8101;BME280;4093;53.470;9.832;2023-03-04T10:17:18;101758.31;;;7.42;73.89
8101;BME280;4093;53.470;9.832;2023-03-04T10:19:54;101779.34;;;7.82;73.67
8101;BME280;4093;53.470;9.832;2023-03-04T10:22:31;101789.59;;;7.74;74.20
8101;BME280;4093;53.470;9.832;2023-03-04T10:25:14;101788.16;;;8.02;73.14
8101;BME280;4093;53.470;9.832;2023-03-04T10:27:42;101779.47;;;7.93;73.09
8101;BME280;4093;53.470;9.832;2023-03-04T10:30:19;101781.19;;;7.92;74.00
8101;BME280;4093;53.470;9.832;2023-03-04T10:32:49;101780.97;;;7.72;74.65
8101;BME280;4093;53.470;9.832;2023-03-04T10:35:17;101785.09;;;7.56;75.40
8101;BME280;4093;53.470;9.832;2023-03-04T10:37:49;101790.44;;;7.76;74.63
8101;BME280;4093;53.470;9.832;2023-03-04T10:40:19;101792.06;;;7.67;74.48
8101;BME280;4093;53.470;9.832;2023-03-04T10:42:48;101799.28;;;8.01;75.16
8101;BME280;4093;53.470;9.832;2023-03-04T10:45:20;101795.75;;;7.92;73.70
8101;BME280;4093;53.470;9.832;2023-03-04T10:47:52;101794.03;;;7.92;71.60
8101;BME280;4093;53.470;9.832;2023-03-04T10:50:22;101783.69;;;7.86;69.91
8101;BME280;4093;53.470;9.832;2023-03-04T10:52:53;101775.41;;;8.18;68.88
8101;BME280;4093;53.470;9.832;2023-03-04T10:55:23;101776.25;;;8.12;69.41
8101;BME280;4093;53.470;9.832;2023-03-04T10:57:54;101783.09;;;8.15;68.85
8101;BME280;4093;53.470;9.832;2023-03-04T11:00:27;101748.72;;;8.11;69.17
8101;BME280;4093;53.470;9.832;2023-03-04T11:06:05;101782.31;;;8.19;68.23
8101;BME280;4093;53.470;9.832;2023-03-04T11:08:34;101771.91;;;8.09;68.71
8101;BME280;4093;53.470;9.832;2023-03-04T11:11:02;101761.34;;;7.80;67.84
8101;BME280;4093;53.470;9.832;2023-03-04T11:13:30;101764.78;;;7.81;67.93
8101;BME280;4093;53.470;9.832;2023-03-04T11:16:01;101772.75;;;8.05;68.51
8101;BME280;4093;53.470;9.832;2023-03-04T11:18:36;101779.78;;;8.26;68.32
8101;BME280;4093;53.470;9.832;2023-03-04T11:21:06;101772.72;;;8.02;66.93
8101;BME280;4093;53.470;9.832;2023-03-04T11:23:41;101770.56;;;8.51;68.16
8101;BME280;4093;53.470;9.832;2023-03-04T11:26:13;101767.72;;;8.24;67.30
8101;BME280;4093;53.470;9.832;2023-03-04T11:28:46;101761.81;;;8.31;66.67
8101;BME280;4093;53.470;9.832;2023-03-04T11:31:20;101758.09;;;8.00;67.61
8101;BME280;4093;53.470;9.832;2023-03-04T11:33:53;101753.25;;;8.35;67.54
8101;BME280;4093;53.470;9.832;2023-03-04T11:36:30;101757.19;;;7.98;68.80
8101;BME280;4093;53.470;9.832;2023-03-04T11:39:02;101751.19;;;7.99;69.79
8101;BME280;4093;53.470;9.832;2023-03-04T11:41:34;101747.06;;;8.16;68.51
8101;BME280;4093;53.470;9.832;2023-03-04T11:44:05;101751.34;;;8.14;68.91
8101;BME280;4093;53.470;9.832;2023-03-04T11:52:51;101728.44;;;8.45;68.50
8101;BME280;4093;53.470;9.832;2023-03-04T11:55:35;101749.75;;;8.30;69.38
8101;BME280;4093;53.470;9.832;2023-03-04T11:58:20;101750.31;;;7.94;71.97
8101;BME280;4093;53.470;9.832;2023-03-04T12:00:53;101726.41;;;8.08;71.54
8101;BME280;4093;53.470;9.832;2023-03-04T12:03:45;101725.47;;;8.00;72.99
8101;BME280;4093;53.470;9.832;2023-03-04T12:06:26;101713.31;;;7.84;74.25
8101;BME280;4093;53.470;9.832;2023-03-04T12:09:30;101755.63;;;8.12;75.17
8101;BME280;4093;53.470;9.832;2023-03-04T12:12:18;101757.31;;;8.08;73.93
8101;BME280;4093;53.470;9.832;2023-03-04T12:14:54;101754.59;;;7.93;74.54
8101;BME280;4093;53.470;9.832;2023-03-04T12:20:42;101761.53;;;8.00;75.53
8101;BME280;4093;53.470;9.832;2023-03-04T12:23:23;101758.38;;;7.48;75.69
8101;BME280;4093;53.470;9.832;2023-03-04T12:25:59;101767.53;;;8.01;76.47
8101;BME280;4093;53.470;9.832;2023-03-04T12:28:43;101761.66;;;8.13;74.72
8101;BME280;4093;53.470;9.832;2023-03-04T12:31:27;101760.78;;;8.12;74.84
8101;BME280;4093;53.470;9.832;2023-03-04T12:34:13;101751.31;;;8.11;74.57
8101;BME280;4093;53.470;9.832;2023-03-04T12:36:51;101740.66;;;7.73;75.39
8101;BME280;4093;53.470;9.832;2023-03-04T12:39:28;101764.13;;;8.05;74.74
8101;BME280;4093;53.470;9.832;2023-03-04T12:42:05;101746.78;;;7.84;75.49
8101;BME280;4093;53.470;9.832;2023-03-04T12:44:44;101725.00;;;7.54;76.13
8101;BME280;4093;53.470;9.832;2023-03-04T12:47:21;101742.91;;;8.33;73.82
8101;BME280;4093;53.470;9.832;2023-03-04T12:50:13;101714.38;;;8.07;73.24
8101;BME280;4093;53.470;9.832;2023-03-04T12:52:53;101742.38;;;8.68;72.96
8101;BME280;4093;53.470;9.832;2023-03-04T12:55:30;101731.41;;;7.93;71.13
8101;BME280;4093;53.470;9.832;2023-03-04T12:58:02;101725.41;;;7.96;70.35
8101;BME280;4093;53.470;9.832;2023-03-04T13:00:40;101716.09;;;8.08;69.83
8101;BME280;4093;53.470;9.832;2023-03-04T13:03:17;101703.47;;;8.39;67.33
8101;BME280;4093;53.470;9.832;2023-03-04T13:06:13;101726.47;;;8.16;65.21
8101;BME280;4093;53.470;9.832;2023-03-04T13:08:52;101699.84;;;8.16;64.88
8101;BME280;4093;53.470;9.832;2023-03-04T13:11:42;101707.28;;;7.82;65.74
8101;BME280;4093;53.470;9.832;2023-03-04T13:14:33;101710.03;;;8.00;65.21
8101;BME280;4093;53.470;9.832;2023-03-04T13:20:21;101698.31;;;8.39;62.33
8101;BME280;4093;53.470;9.832;2023-03-04T13:22:54;101665.81;;;8.61;61.26
8101;BME280;4093;53.470;9.832;2023-03-04T13:25:36;101707.16;;;8.75;62.31
8101;BME280;4093;53.470;9.832;2023-03-04T13:28:14;101696.81;;;8.73;61.70
8101;BME280;4093;53.470;9.832;2023-03-04T13:31:17;101687.22;;;8.48;62.29
8101;BME280;4093;53.470;9.832;2023-03-04T13:33:59;101693.31;;;8.61;62.46
8101;BME280;4093;53.470;9.832;2023-03-04T13:36:30;101697.94;;;9.32;61.72
8101;BME280;4093;53.470;9.832;2023-03-04T13:39:02;101672.13;;;9.24;61.64
8101;BME280;4093;53.470;9.832;2023-03-04T13:41:31;101673.72;;;8.87;61.82
8101;BME280;4093;53.470;9.832;2023-03-04T13:44:33;101689.91;;;8.68;62.77
8101;BME280;4093;53.470;9.832;2023-03-04T13:47:08;101675.84;;;8.23;62.79
8101;BME280;4093;53.470;9.832;2023-03-04T13:49:42;101688.72;;;8.20;63.90
8101;BME280;4093;53.470;9.832;2023-03-04T13:52:33;101695.59;;;8.24;64.44
8101;BME280;4093;53.470;9.832;2023-03-04T13:58:19;101684.72;;;8.55;63.32
8101;BME280;4093;53.470;9.832;2023-03-04T14:00:50;101682.13;;;8.57;62.62